createdAt,value
2023-05-23T00:00:26.348Z,1014.09
2023-05-23T00:00:55.970Z,1014.09
2023-05-23T00:01:26.941Z,1014.09
2023-05-23T00:01:58.043Z,1013.98
2023-05-23T00:02:29.603Z,1013.98
2023-05-23T00:03:00.000Z,1013.98
2023-05-23T00:03:31.132Z,1014.09
2023-05-23T00:04:02.189Z,1014.09
2023-05-23T00:04:33.337Z,1014.09
2023-05-23T00:05:04.250Z,1014.09
2023-05-23T00:05:35.371Z,1014.09
2023-05-23T00:06:06.378Z,1014.09
2023-05-23T00:06:37.173Z,1014.09
2023-05-23T00:07:08.200Z,1014.09
2023-05-23T00:07:39.372Z,1014.19
2023-05-23T00:08:10.378Z,1014.19
2023-05-23T00:08:41.332Z,1014.19
2023-05-23T00:09:12.407Z,1014.19
2023-05-23T00:09:43.101Z,1014.09
2023-05-23T00:10:14.459Z,1014.09
2023-05-23T00:10:45.127Z,1013.88
2023-05-23T00:11:16.009Z,1013.88
2023-05-23T00:11:48.575Z,1014.09
2023-05-23T00:12:18.308Z,1014.09
2023-05-23T00:12:50.690Z,1013.98
2023-05-23T00:13:20.237Z,1013.98
2023-05-23T00:13:51.437Z,1014.09
2023-05-23T00:14:22.418Z,1014.09
2023-05-23T00:14:53.408Z,1014.19
2023-05-23T00:15:24.957Z,1014.19
2023-05-23T00:15:54.954Z,1014.09
2023-05-23T00:16:25.939Z,1014.09
2023-05-23T00:16:57.042Z,1014.19
2023-05-23T00:17:28.145Z,1014.19
2023-05-23T00:17:59.043Z,1014.19
2023-05-23T00:18:30.040Z,1014.19
2023-05-23T00:19:01.045Z,1014.09
2023-05-23T00:19:32.356Z,1013.98
2023-05-23T00:20:03.186Z,1013.98
2023-05-23T00:20:33.966Z,1014.09
2023-05-23T00:21:05.457Z,1014.09
2023-05-23T00:21:36.004Z,1014.09
2023-05-23T00:22:07.021Z,1014.09
2023-05-23T00:22:38.246Z,1014.19
2023-05-23T00:23:09.093Z,1014.19
2023-05-23T00:23:40.113Z,1014.19
2023-05-23T00:24:11.342Z,1014.19
2023-05-23T00:24:42.056Z,1014.09
2023-05-23T00:25:13.448Z,1014.09
2023-05-23T00:25:44.133Z,1014.19
2023-05-23T00:26:15.238Z,1014.19
2023-05-23T00:26:46.392Z,1013.98
2023-05-23T00:27:17.350Z,1013.98
2023-05-23T00:27:48.032Z,1014.09
2023-05-23T00:28:19.068Z,1014.09
2023-05-23T00:28:50.066Z,1013.98
2023-05-23T00:29:21.335Z,1013.98
2023-05-23T00:29:52.128Z,1013.98
2023-05-23T00:30:24.000Z,1013.98
2023-05-23T00:30:54.426Z,1014.09
2023-05-23T00:31:25.143Z,1014.09
2023-05-23T00:31:56.334Z,1014.19
2023-05-23T00:32:27.092Z,1014.19
2023-05-23T00:32:58.420Z,1014.19
2023-05-23T00:33:29.039Z,1014.19
2023-05-23T00:34:00.154Z,1014.19
2023-05-23T00:34:31.532Z,1014.19
2023-05-23T00:35:02.333Z,1014.19
2023-05-23T00:35:33.935Z,1014.19
2023-05-23T00:36:04.211Z,1014.19
2023-05-23T00:36:35.334Z,1014.19
2023-05-23T00:37:06.402Z,1014.19
2023-05-23T00:37:37.265Z,1013.98
2023-05-23T00:38:08.331Z,1013.98
2023-05-23T00:38:39.016Z,1014.09
2023-05-23T00:39:10.133Z,1014.09
2023-05-23T00:39:41.027Z,1014.19
2023-05-23T00:40:12.512Z,1014.19
2023-05-23T00:40:43.055Z,1014.19
2023-05-23T00:41:14.351Z,1014.19
2023-05-23T00:41:45.169Z,1014.29
2023-05-23T00:42:16.097Z,1014.29
2023-05-23T00:42:47.035Z,1014.29
2023-05-23T00:43:19.410Z,1014.29
2023-05-23T00:43:49.425Z,1013.98
2023-05-23T00:44:22.175Z,1013.98
2023-05-23T00:44:51.531Z,1014.19
2023-05-23T00:45:23.693Z,1014.19
2023-05-23T00:45:53.056Z,1014.29
2023-05-23T00:46:24.158Z,1014.29
2023-05-23T00:46:55.303Z,1014.19
2023-05-23T00:47:26.187Z,1014.19
2023-05-23T00:47:57.785Z,1014.09
2023-05-23T00:48:28.161Z,1014.09
2023-05-23T00:48:59.119Z,1014.29
2023-05-23T00:49:30.572Z,1014.29
2023-05-23T00:50:01.564Z,1014.09
2023-05-23T00:50:32.116Z,1014.19
2023-05-23T00:51:03.532Z,1014.19
2023-05-23T00:51:34.459Z,1014.29
2023-05-23T00:52:05.578Z,1014.29
2023-05-23T00:52:36.565Z,1014.09
2023-05-23T00:53:07.362Z,1014.09
2023-05-23T00:53:38.477Z,1013.98
2023-05-23T00:54:09.524Z,1013.98
2023-05-23T00:54:40.635Z,1014.09
2023-05-23T00:55:11.377Z,1014.09
2023-05-23T00:55:42.439Z,1014.09
2023-05-23T00:56:13.112Z,1014.09
2023-05-23T00:56:44.480Z,1014.19
2023-05-23T00:57:15.217Z,1014.19
2023-05-23T00:57:46.305Z,1014.19
2023-05-23T00:58:17.327Z,1014.19
2023-05-23T00:58:48.419Z,1014.19
2023-05-23T00:59:19.344Z,1014.19
2023-05-23T00:59:50.693Z,1014.29
2023-05-23T01:00:22.196Z,1014.29
2023-05-23T01:00:52.177Z,1014.09
2023-05-23T01:01:23.127Z,1014.09
2023-05-23T01:01:54.195Z,1014.19
2023-05-23T01:02:25.234Z,1014.19
2023-05-23T01:02:56.391Z,1014.19
2023-05-23T01:03:27.304Z,1014.19
2023-05-23T01:03:58.388Z,1014.29
2023-05-23T01:04:29.199Z,1014.29
2023-05-23T01:05:01.270Z,1014.19
2023-05-23T01:05:31.263Z,1014.29
2023-05-23T01:06:02.350Z,1014.29
2023-05-23T01:06:33.394Z,1014.29
2023-05-23T01:07:04.436Z,1014.29
2023-05-23T01:07:35.380Z,1013.88
2023-05-23T01:08:06.218Z,1013.88
2023-05-23T01:08:37.878Z,1014.39
2023-05-23T01:09:08.173Z,1014.39
2023-05-23T01:09:39.270Z,1014.09
2023-05-23T01:10:11.115Z,1014.09
2023-05-23T01:10:41.173Z,1014.29
2023-05-23T01:11:12.229Z,1014.29
2023-05-23T01:11:43.289Z,1014.19
2023-05-23T01:12:14.399Z,1014.19
2023-05-23T01:12:45.525Z,1014.49
2023-05-23T01:13:16.243Z,1014.49
2023-05-23T01:13:47.494Z,1014.39
2023-05-23T01:14:18.469Z,1014.39
2023-05-23T01:14:50.604Z,1014.19
2023-05-23T01:15:21.196Z,1014.19
2023-05-23T01:15:52.711Z,1014.39
2023-05-23T01:16:22.263Z,1014.39
2023-05-23T01:16:53.272Z,1014.49
2023-05-23T01:17:23.716Z,1014.49
2023-05-23T01:17:55.103Z,1014.49
2023-05-23T01:18:25.852Z,1014.49
2023-05-23T01:18:57.070Z,1014.49
2023-05-23T01:19:27.788Z,1014.49
2023-05-23T01:19:59.348Z,1014.29
2023-05-23T01:20:30.754Z,1014.29
2023-05-23T01:21:01.968Z,1014.19
2023-05-23T01:21:32.747Z,1014.49
2023-05-23T01:22:03.375Z,1014.49
2023-05-23T01:22:34.363Z,1014.19
2023-05-23T01:23:05.294Z,1014.19
2023-05-23T01:23:37.363Z,1014.39
2023-05-23T01:24:07.429Z,1014.39
2023-05-23T01:24:38.270Z,1014.39
2023-05-23T01:25:09.707Z,1014.39
2023-05-23T01:25:40.763Z,1014.39
2023-05-23T01:26:11.267Z,1014.39
2023-05-23T01:26:42.451Z,1014.29
2023-05-23T01:27:13.817Z,1014.29
2023-05-23T01:27:44.333Z,1014.49
2023-05-23T01:28:15.456Z,1014.49
2023-05-23T01:28:46.277Z,1014.19
2023-05-23T01:29:17.455Z,1014.19
2023-05-23T01:29:48.654Z,1014.29
2023-05-23T01:30:20.091Z,1014.29
2023-05-23T01:30:50.248Z,1014.39
2023-05-23T01:31:21.304Z,1014.39
2023-05-23T01:31:52.710Z,1014.29
2023-05-23T01:32:23.607Z,1014.29
2023-05-23T01:32:54.749Z,1014.29
2023-05-23T01:33:25.338Z,1014.29
2023-05-23T01:33:56.539Z,1014.39
2023-05-23T01:34:28.323Z,1014.39
2023-05-23T01:34:58.328Z,1014.19
2023-05-23T01:35:30.079Z,1014.19
2023-05-23T01:36:00.287Z,1014.19
2023-05-23T01:36:31.377Z,1014.29
2023-05-23T01:37:02.494Z,1014.29
2023-05-23T01:37:33.325Z,1014.59
2023-05-23T01:38:04.608Z,1014.59
2023-05-23T01:38:35.346Z,1014.49
2023-05-23T01:39:06.699Z,1014.49
2023-05-23T01:39:37.353Z,1014.39
2023-05-23T01:40:08.593Z,1014.39
2023-05-23T01:40:39.329Z,1014.39
2023-05-23T01:41:10.709Z,1014.39
2023-05-23T01:41:41.479Z,1014.39
2023-05-23T01:42:12.517Z,1014.39
2023-05-23T01:42:43.326Z,1014.19
2023-05-23T01:43:14.330Z,1014.19
2023-05-23T01:43:45.316Z,1014.39
2023-05-23T01:44:47.381Z,1014.29
2023-05-23T01:45:19.305Z,1014.29
2023-05-23T01:45:49.435Z,1014.39
2023-05-23T01:46:21.216Z,1014.39
2023-05-23T01:46:51.483Z,1014.39
2023-05-23T01:47:22.576Z,1014.39
2023-05-23T01:47:53.815Z,1014.29
2023-05-23T01:48:25.150Z,1014.29
2023-05-23T01:48:55.389Z,1014.29
2023-05-23T01:49:26.319Z,1014.29
2023-05-23T01:49:57.372Z,1014.29
2023-05-23T01:50:28.791Z,1014.29
2023-05-23T01:50:59.491Z,1014.29
2023-05-23T01:51:30.583Z,1014.29
2023-05-23T01:52:01.684Z,1014.29
2023-05-23T01:52:32.387Z,1014.29
2023-05-23T01:53:03.778Z,1014.29
2023-05-23T01:53:34.771Z,1014.39
2023-05-23T01:54:05.669Z,1014.39
2023-05-23T01:54:36.533Z,1014.29
2023-05-23T01:55:07.994Z,1014.29
2023-05-23T01:55:38.788Z,1014.29
2023-05-23T01:56:09.380Z,1014.29
2023-05-23T01:56:40.360Z,1014.49
2023-05-23T01:57:11.458Z,1014.49
2023-05-23T01:57:42.691Z,1014.39
2023-05-23T01:58:13.416Z,1014.39
2023-05-23T01:58:44.332Z,1014.59
2023-05-23T01:59:15.573Z,1014.59
2023-05-23T01:59:46.399Z,1014.70
2023-05-23T02:00:18.815Z,1014.70
2023-05-23T02:00:48.409Z,1014.29
2023-05-23T02:01:19.352Z,1014.29
2023-05-23T02:01:50.599Z,1014.49
2023-05-23T02:02:21.484Z,1014.49
2023-05-23T02:02:52.504Z,1014.39
2023-05-23T02:03:23.448Z,1014.39
2023-05-23T02:03:54.572Z,1014.39
2023-05-23T02:04:25.664Z,1014.39
2023-05-23T02:04:56.577Z,1014.49
2023-05-23T02:05:27.875Z,1014.49
2023-05-23T02:05:58.378Z,1014.29
2023-05-23T02:06:29.535Z,1014.29
2023-05-23T02:07:00.356Z,1014.49
2023-05-23T02:07:31.605Z,1014.39
2023-05-23T02:08:02.412Z,1014.39
2023-05-23T02:08:34.292Z,1014.49
2023-05-23T02:09:04.696Z,1014.49
2023-05-23T02:09:35.605Z,1014.39
2023-05-23T02:10:06.799Z,1014.39
2023-05-23T02:10:37.698Z,1014.39
2023-05-23T02:11:08.742Z,1014.39
2023-05-23T02:11:39.772Z,1014.49
2023-05-23T02:12:10.701Z,1014.49
2023-05-23T02:12:41.777Z,1014.59
2023-05-23T02:13:12.962Z,1014.59
2023-05-23T02:13:43.711Z,1014.19
2023-05-23T02:14:14.408Z,1014.19
2023-05-23T02:14:45.444Z,1014.49
2023-05-23T02:15:17.867Z,1014.49
2023-05-23T02:15:47.655Z,1014.39
2023-05-23T02:16:18.360Z,1014.39
2023-05-23T02:16:49.711Z,1014.59
2023-05-23T02:17:20.500Z,1014.59
2023-05-23T02:17:52.538Z,1014.49
2023-05-23T02:18:22.629Z,1014.49
2023-05-23T02:18:54.664Z,1014.39
2023-05-23T02:19:24.817Z,1014.39
2023-05-23T02:19:55.881Z,1014.49
2023-05-23T02:20:27.038Z,1014.49
2023-05-23T02:20:57.440Z,1014.39
2023-05-23T02:21:28.413Z,1014.39
2023-05-23T02:21:59.819Z,1014.49
2023-05-23T02:22:30.770Z,1014.49
2023-05-23T02:23:02.257Z,1014.49
2023-05-23T02:23:32.482Z,1014.39
2023-05-23T02:24:03.728Z,1014.39
2023-05-23T02:24:34.698Z,1014.49
2023-05-23T02:25:06.047Z,1014.49
2023-05-23T02:25:36.342Z,1014.70
2023-05-23T02:26:07.480Z,1014.70
2023-05-23T02:26:38.490Z,1014.70
2023-05-23T02:27:09.477Z,1014.70
2023-05-23T02:27:40.559Z,1014.49
2023-05-23T02:28:11.481Z,1014.49
2023-05-23T02:28:42.573Z,1014.49
2023-05-23T02:29:13.592Z,1014.49
2023-05-23T02:29:44.721Z,1014.49
2023-05-23T02:30:16.643Z,1014.49
2023-05-23T02:30:46.646Z,1014.49
2023-05-23T02:31:17.610Z,1014.49
2023-05-23T02:31:48.631Z,1014.59
2023-05-23T02:32:19.889Z,1014.59
2023-05-23T02:32:50.932Z,1014.39
2023-05-23T02:33:21.932Z,1014.39
2023-05-23T02:33:52.854Z,1014.39
2023-05-23T02:34:24.013Z,1014.39
2023-05-23T02:34:56.910Z,1014.49
2023-05-23T02:35:26.278Z,1014.49
2023-05-23T02:35:56.800Z,1014.59
2023-05-23T02:36:27.892Z,1014.59
2023-05-23T02:36:58.772Z,1014.39
2023-05-23T02:37:29.647Z,1014.39
2023-05-23T02:38:00.673Z,1014.59
2023-05-23T02:38:31.970Z,1014.49
2023-05-23T02:39:02.521Z,1014.49
2023-05-23T02:39:33.777Z,1014.39
2023-05-23T02:40:04.715Z,1014.39
2023-05-23T02:40:35.486Z,1014.59
2023-05-23T02:41:06.754Z,1014.59
2023-05-23T02:41:37.498Z,1014.70
2023-05-23T02:42:08.637Z,1014.70
2023-05-23T02:42:39.876Z,1014.49
2023-05-23T02:43:11.141Z,1014.49
2023-05-23T02:43:41.790Z,1014.59
2023-05-23T02:44:13.096Z,1014.59
2023-05-23T02:44:43.580Z,1014.59
2023-05-23T02:45:15.278Z,1014.59
2023-05-23T02:45:45.606Z,1014.70
2023-05-23T02:46:17.045Z,1014.70
2023-05-23T02:46:47.753Z,1014.39
2023-05-23T02:47:18.520Z,1014.39
2023-05-23T02:47:49.792Z,1014.70
2023-05-23T02:48:20.757Z,1014.70
2023-05-23T02:48:51.891Z,1014.59
2023-05-23T02:49:23.898Z,1014.59
2023-05-23T02:49:53.760Z,1014.70
2023-05-23T02:50:25.468Z,1014.70
2023-05-23T02:50:55.779Z,1014.80
2023-05-23T02:51:26.939Z,1014.80
2023-05-23T02:51:57.546Z,1014.59
2023-05-23T02:52:28.831Z,1014.59
2023-05-23T02:52:59.578Z,1014.70
2023-05-23T02:53:30.636Z,1014.70
2023-05-23T02:54:01.937Z,1014.59
2023-05-23T02:54:32.881Z,1014.59
2023-05-23T02:55:03.894Z,1014.59
2023-05-23T02:55:34.519Z,1014.59
2023-05-23T02:56:05.858Z,1014.59
2023-05-23T02:56:36.860Z,1014.59
2023-05-23T02:57:07.805Z,1014.59
2023-05-23T02:57:38.968Z,1014.49
2023-05-23T02:58:09.527Z,1014.49
2023-05-23T02:58:40.669Z,1014.49
2023-05-23T02:59:12.014Z,1014.49
2023-05-23T02:59:42.577Z,1014.70
2023-05-23T03:00:14.496Z,1014.70
2023-05-23T03:00:44.616Z,1014.59
2023-05-23T03:01:15.539Z,1014.59
2023-05-23T03:01:46.609Z,1014.70
2023-05-23T03:02:17.710Z,1014.70
2023-05-23T03:02:48.643Z,1014.49
2023-05-23T03:03:19.829Z,1014.49
2023-05-23T03:03:50.945Z,1014.80
2023-05-23T03:04:22.012Z,1014.80
2023-05-23T03:04:52.692Z,1014.49
2023-05-23T03:05:24.151Z,1014.49
2023-05-23T03:05:54.490Z,1014.59
2023-05-23T03:06:25.990Z,1014.59
2023-05-23T03:06:56.617Z,1014.70
2023-05-23T03:07:28.861Z,1014.70
2023-05-23T03:07:58.958Z,1014.49
2023-05-23T03:08:29.771Z,1014.49
2023-05-23T03:09:01.063Z,1014.39
2023-05-23T03:09:31.728Z,1014.80
2023-05-23T03:10:03.172Z,1014.80
2023-05-23T03:10:33.936Z,1014.59
2023-05-23T03:11:04.582Z,1014.59
2023-05-23T03:11:35.717Z,1014.49
2023-05-23T03:12:06.676Z,1014.49
2023-05-23T03:12:37.768Z,1014.49
2023-05-23T03:13:08.854Z,1014.49
2023-05-23T03:13:39.929Z,1014.70
2023-05-23T03:14:10.586Z,1014.70
2023-05-23T03:14:41.627Z,1014.49
2023-05-23T03:15:13.347Z,1014.49
2023-05-23T03:15:43.652Z,1014.70
2023-05-23T03:16:14.582Z,1014.70
2023-05-23T03:16:46.597Z,1014.39
2023-05-23T03:17:16.661Z,1014.39
2023-05-23T03:17:47.731Z,1014.59
2023-05-23T03:18:18.929Z,1014.59
2023-05-23T03:18:49.653Z,1014.49
2023-05-23T03:19:21.030Z,1014.49
2023-05-23T03:19:51.979Z,1014.39
2023-05-23T03:20:23.326Z,1014.39
2023-05-23T03:20:54.937Z,1014.29
2023-05-23T03:21:24.993Z,1014.29
2023-05-23T03:21:57.177Z,1014.70
2023-05-23T03:22:27.157Z,1014.70
2023-05-23T03:22:58.342Z,1014.59
2023-05-23T03:23:29.086Z,1014.59
2023-05-23T03:23:59.927Z,1014.49
2023-05-23T03:24:30.598Z,1014.49
2023-05-23T03:25:01.732Z,1014.59
2023-05-23T03:25:32.573Z,1014.49
2023-05-23T03:26:03.739Z,1014.49
2023-05-23T03:26:34.629Z,1014.49
2023-05-23T03:27:05.973Z,1014.49
2023-05-23T03:27:36.624Z,1014.49
2023-05-23T03:28:07.800Z,1014.49
2023-05-23T03:28:38.898Z,1014.59
2023-05-23T03:29:09.759Z,1014.59
2023-05-23T03:29:40.867Z,1014.59
2023-05-23T03:30:12.781Z,1014.59
2023-05-23T03:30:42.884Z,1014.70
2023-05-23T03:31:13.653Z,1014.70
2023-05-23T03:31:45.079Z,1014.80
2023-05-23T03:32:15.788Z,1014.80
2023-05-23T03:32:46.733Z,1014.49
2023-05-23T03:33:17.861Z,1014.49
2023-05-23T03:33:48.830Z,1014.59
2023-05-23T03:34:19.893Z,1014.59
2023-05-23T03:34:50.890Z,1014.80
2023-05-23T03:35:22.555Z,1014.80
2023-05-23T03:35:52.645Z,1014.59
2023-05-23T03:36:23.753Z,1014.59
2023-05-23T03:36:54.791Z,1014.49
2023-05-23T03:37:25.737Z,1014.49
2023-05-23T03:37:57.109Z,1014.29
2023-05-23T03:38:27.925Z,1014.29
2023-05-23T03:38:58.730Z,1014.59
2023-05-23T03:39:29.989Z,1014.59
2023-05-23T03:40:00.977Z,1014.49
2023-05-23T03:40:31.791Z,1014.70
2023-05-23T03:41:03.052Z,1014.70
2023-05-23T03:41:34.088Z,1014.59
2023-05-23T03:42:04.810Z,1014.59
2023-05-23T03:42:35.932Z,1014.70
2023-05-23T03:43:07.009Z,1014.70
2023-05-23T03:43:38.018Z,1014.70
2023-05-23T03:44:08.837Z,1014.70
2023-05-23T03:44:39.731Z,1014.49
2023-05-23T03:45:11.633Z,1014.49
2023-05-23T03:45:42.046Z,1014.70
2023-05-23T03:46:12.810Z,1014.70
2023-05-23T03:46:43.875Z,1014.39
2023-05-23T03:47:14.918Z,1014.39
2023-05-23T03:47:47.620Z,1014.59
2023-05-23T03:48:17.229Z,1014.59
2023-05-23T03:48:47.772Z,1014.70
2023-05-23T03:49:18.700Z,1014.70
2023-05-23T03:49:49.972Z,1014.39
2023-05-23T03:50:21.388Z,1014.39
2023-05-23T03:50:52.177Z,1014.29
2023-05-23T03:51:23.169Z,1014.29
2023-05-23T03:51:53.980Z,1014.29
2023-05-23T03:52:25.798Z,1014.29
2023-05-23T03:52:56.358Z,1014.70
2023-05-23T03:53:27.808Z,1014.70
2023-05-23T03:53:57.790Z,1014.49
2023-05-23T03:54:29.001Z,1014.49
2023-05-23T03:54:59.838Z,1014.39
2023-05-23T03:55:31.511Z,1014.39
2023-05-23T03:56:02.234Z,1014.70
2023-05-23T03:56:32.836Z,1014.59
2023-05-23T03:57:04.290Z,1014.59
2023-05-23T03:57:34.908Z,1014.49
2023-05-23T03:58:06.112Z,1014.49
2023-05-23T03:58:37.166Z,1014.39
2023-05-23T03:59:08.007Z,1014.39
2023-05-23T03:59:39.170Z,1014.49
2023-05-23T04:00:10.827Z,1014.49
2023-05-23T04:00:41.107Z,1014.59
2023-05-23T04:01:12.361Z,1014.59
2023-05-23T04:01:43.063Z,1014.49
2023-05-23T04:02:13.940Z,1014.49
2023-05-23T04:02:44.916Z,1014.59
2023-05-23T04:03:16.071Z,1014.59
2023-05-23T04:03:46.868Z,1014.49
2023-05-23T04:04:17.816Z,1014.49
2023-05-23T04:04:48.961Z,1014.49
2023-05-23T04:05:20.532Z,1014.49
2023-05-23T04:05:51.288Z,1014.59
2023-05-23T04:06:22.315Z,1014.59
2023-05-23T04:06:52.824Z,1014.59
2023-05-23T04:07:24.322Z,1014.59
2023-05-23T04:07:55.238Z,1014.49
2023-05-23T04:08:26.256Z,1014.49
2023-05-23T04:08:57.071Z,1014.59
2023-05-23T04:09:28.238Z,1014.59
2023-05-23T04:09:59.206Z,1014.49
2023-05-23T04:10:30.514Z,1014.49
2023-05-23T04:11:01.164Z,1014.70
2023-05-23T04:11:32.287Z,1014.59
2023-05-23T04:12:03.269Z,1014.59
2023-05-23T04:12:34.488Z,1014.70
2023-05-23T04:13:05.049Z,1014.70
2023-05-23T04:13:35.895Z,1014.49
2023-05-23T04:14:06.893Z,1014.49
2023-05-23T04:14:38.582Z,1014.59
2023-05-23T04:15:09.749Z,1014.59
2023-05-23T04:15:40.147Z,1014.70
2023-05-23T04:16:10.991Z,1014.70
2023-05-23T04:16:42.417Z,1014.49
2023-05-23T04:17:12.904Z,1014.49
2023-05-23T04:17:44.373Z,1014.80
2023-05-23T04:18:14.975Z,1014.80
2023-05-23T04:18:46.003Z,1014.59
2023-05-23T04:19:16.971Z,1014.59
2023-05-23T04:19:48.284Z,1014.80
2023-05-23T04:20:19.368Z,1014.80
2023-05-23T04:20:50.222Z,1014.59
2023-05-23T04:21:21.206Z,1014.59
2023-05-23T04:21:52.153Z,1014.90
2023-05-23T04:22:22.876Z,1014.90
2023-05-23T04:22:54.338Z,1014.59
2023-05-23T04:23:25.204Z,1014.59
2023-05-23T04:23:57.524Z,1014.80
2023-05-23T04:24:26.915Z,1014.80
2023-05-23T04:24:59.275Z,1014.90
2023-05-23T04:25:29.272Z,1014.90
2023-05-23T04:26:00.323Z,1014.49
2023-05-23T04:26:31.090Z,1014.49
2023-05-23T04:27:01.928Z,1015.00
2023-05-23T04:27:33.456Z,1014.80
2023-05-23T04:28:04.225Z,1014.80
2023-05-23T04:28:34.904Z,1015.00
2023-05-23T04:29:06.275Z,1015.00
2023-05-23T04:29:37.037Z,1014.80
2023-05-23T04:30:08.458Z,1014.80
2023-05-23T04:30:38.955Z,1014.90
2023-05-23T04:31:10.092Z,1014.90
2023-05-23T04:31:41.153Z,1014.90
2023-05-23T04:32:12.125Z,1014.90
2023-05-23T04:32:43.074Z,1015.10
2023-05-23T04:33:14.448Z,1015.10
2023-05-23T04:33:45.202Z,1015.00
2023-05-23T04:34:16.197Z,1015.00
2023-05-23T04:34:46.961Z,1014.90
2023-05-23T04:35:18.721Z,1014.90
2023-05-23T04:35:48.934Z,1015.00
2023-05-23T04:36:20.215Z,1015.00
2023-05-23T04:36:51.055Z,1015.10
2023-05-23T04:37:22.111Z,1015.10
2023-05-23T04:37:53.098Z,1014.80
2023-05-23T04:38:24.576Z,1014.80
2023-05-23T04:38:55.173Z,1015.00
2023-05-23T04:39:26.688Z,1015.00
2023-05-23T04:39:56.947Z,1015.00
2023-05-23T04:40:28.489Z,1015.00
2023-05-23T04:40:59.263Z,1015.00
2023-05-23T04:41:30.099Z,1015.00
2023-05-23T04:42:01.190Z,1015.10
2023-05-23T04:42:32.293Z,1015.00
2023-05-23T04:43:03.098Z,1015.00
2023-05-23T04:43:34.781Z,1014.80
2023-05-23T04:44:05.246Z,1014.80
2023-05-23T04:44:36.231Z,1014.80
2023-05-23T04:45:08.341Z,1014.80
2023-05-23T04:45:37.899Z,1015.10
2023-05-23T04:46:08.959Z,1015.10
2023-05-23T04:46:40.155Z,1015.00
2023-05-23T04:47:11.069Z,1015.00
2023-05-23T04:47:42.151Z,1015.00
2023-05-23T04:48:13.293Z,1015.00
2023-05-23T04:48:44.002Z,1014.90
2023-05-23T04:49:15.315Z,1014.90
2023-05-23T04:49:46.679Z,1015.10
2023-05-23T04:50:17.933Z,1015.10
2023-05-23T04:50:48.256Z,1014.90
2023-05-23T04:51:19.128Z,1014.90
2023-05-23T04:51:50.015Z,1015.00
2023-05-23T04:52:21.031Z,1015.00
2023-05-23T04:52:51.961Z,1014.90
2023-05-23T04:53:22.960Z,1014.90
2023-05-23T04:53:53.968Z,1015.00
2023-05-23T04:54:24.980Z,1015.00
2023-05-23T04:54:55.952Z,1014.90
2023-05-23T04:55:28.920Z,1014.90
2023-05-23T04:55:58.712Z,1015.00
2023-05-23T04:56:29.999Z,1015.00
2023-05-23T04:57:00.236Z,1015.00
2023-05-23T04:57:31.562Z,1015.00
2023-05-23T04:58:02.243Z,1015.20
2023-05-23T04:58:33.098Z,1015.00
2023-05-23T04:59:04.400Z,1015.00
2023-05-23T04:59:35.464Z,1015.00
2023-05-23T05:00:06.754Z,1015.00
2023-05-23T05:00:37.074Z,1015.00
2023-05-23T05:01:08.059Z,1015.00
2023-05-23T05:01:39.191Z,1015.20
2023-05-23T05:02:10.604Z,1015.20
2023-05-23T05:02:41.433Z,1015.10
2023-05-23T05:03:12.194Z,1015.10
2023-05-23T05:03:43.607Z,1015.31
2023-05-23T05:04:14.148Z,1015.31
2023-05-23T05:04:45.114Z,1015.20
2023-05-23T05:05:16.497Z,1015.20
2023-05-23T05:05:47.131Z,1015.20
2023-05-23T05:06:18.340Z,1015.20
2023-05-23T05:06:49.213Z,1015.20
2023-05-23T05:07:20.172Z,1015.20
2023-05-23T05:07:51.405Z,1015.31
2023-05-23T05:08:22.518Z,1015.31
2023-05-23T05:08:53.378Z,1015.00
2023-05-23T05:09:24.420Z,1015.00
2023-05-23T05:09:55.319Z,1015.31
2023-05-23T05:10:27.024Z,1015.31
2023-05-23T05:10:57.036Z,1015.10
2023-05-23T05:11:28.057Z,1015.10
2023-05-23T05:11:58.957Z,1015.00
2023-05-23T05:12:30.113Z,1015.00
2023-05-23T05:13:01.256Z,1015.31
2023-05-23T05:13:32.685Z,1014.90
2023-05-23T05:14:03.156Z,1014.90
2023-05-23T05:14:34.171Z,1015.10
2023-05-23T05:15:05.822Z,1015.10
2023-05-23T05:15:36.399Z,1015.10
2023-05-23T05:16:07.426Z,1015.10
2023-05-23T05:16:38.506Z,1015.10
2023-05-23T05:17:09.433Z,1015.10
2023-05-23T05:17:40.275Z,1015.10
2023-05-23T05:18:11.559Z,1015.10
2023-05-23T05:18:42.490Z,1015.20
2023-05-23T05:19:13.734Z,1015.20
2023-05-23T05:19:44.099Z,1015.31
2023-05-23T05:20:15.536Z,1015.31
2023-05-23T05:20:46.074Z,1015.10
2023-05-23T05:21:17.224Z,1015.10
2023-05-23T05:21:48.574Z,1015.10
2023-05-23T05:22:19.142Z,1015.10
2023-05-23T05:22:50.249Z,1015.00
2023-05-23T05:23:21.152Z,1015.00
2023-05-23T05:23:52.428Z,1015.00
2023-05-23T05:24:23.156Z,1015.00
2023-05-23T05:24:54.445Z,1015.41
2023-05-23T05:25:25.627Z,1015.41
2023-05-23T05:25:56.435Z,1015.10
2023-05-23T05:26:27.278Z,1015.10
2023-05-23T05:26:59.973Z,1015.20
2023-05-23T05:27:29.373Z,1015.20
2023-05-23T05:28:01.289Z,1015.10
2023-05-23T05:28:31.049Z,1015.10
2023-05-23T05:29:03.078Z,1015.00
2023-05-23T05:29:33.158Z,1015.20
2023-05-23T05:30:04.650Z,1015.20
2023-05-23T05:30:35.170Z,1015.10
2023-05-23T05:31:06.266Z,1015.10
2023-05-23T05:31:37.570Z,1015.10
2023-05-23T05:32:08.092Z,1015.10
2023-05-23T05:32:39.839Z,1015.20
2023-05-23T05:33:10.112Z,1015.20
2023-05-23T05:33:41.249Z,1015.20
2023-05-23T05:34:12.191Z,1015.20
2023-05-23T05:34:43.370Z,1015.31
2023-05-23T05:35:14.575Z,1015.31
2023-05-23T05:35:45.160Z,1015.00
2023-05-23T05:36:16.347Z,1015.00
2023-05-23T05:36:47.183Z,1015.31
2023-05-23T05:37:18.449Z,1015.31
2023-05-23T05:37:49.648Z,1015.00
2023-05-23T05:38:20.450Z,1015.00
2023-05-23T05:38:51.175Z,1015.41
2023-05-23T05:39:22.158Z,1015.41
2023-05-23T05:39:53.130Z,1015.31
2023-05-23T05:40:24.781Z,1015.31
2023-05-23T05:40:55.494Z,1015.10
2023-05-23T05:41:26.437Z,1015.10
2023-05-23T05:41:57.503Z,1015.31
2023-05-23T05:42:28.295Z,1015.31
2023-05-23T05:42:59.282Z,1015.20
2023-05-23T05:43:30.249Z,1015.20
2023-05-23T05:44:01.214Z,1015.41
2023-05-23T05:44:32.357Z,1015.41
2023-05-23T05:45:03.723Z,1015.41
2023-05-23T05:45:34.998Z,1015.31
2023-05-23T05:46:05.641Z,1015.31
2023-05-23T05:46:36.633Z,1015.41
2023-05-23T05:47:07.537Z,1015.41
2023-05-23T05:47:38.540Z,1015.41
2023-05-23T05:48:09.620Z,1015.41
2023-05-23T05:48:40.372Z,1015.41
2023-05-23T05:49:12.470Z,1015.41
2023-05-23T05:49:42.529Z,1015.00
2023-05-23T05:50:13.832Z,1015.00
2023-05-23T05:50:44.239Z,1015.51
2023-05-23T05:51:15.579Z,1015.51
2023-05-23T05:51:46.210Z,1015.51
2023-05-23T05:52:17.276Z,1015.51
2023-05-23T05:52:48.271Z,1015.51
2023-05-23T05:53:19.472Z,1015.51
2023-05-23T05:53:50.353Z,1015.51
2023-05-23T05:54:21.733Z,1015.51
2023-05-23T05:54:52.428Z,1015.51
2023-05-23T05:55:23.701Z,1015.51
2023-05-23T05:55:54.484Z,1015.41
2023-05-23T05:56:25.688Z,1015.41
2023-05-23T05:56:56.558Z,1015.61
2023-05-23T05:57:27.254Z,1015.61
2023-05-23T05:57:58.532Z,1015.31
2023-05-23T05:58:30.272Z,1015.31
2023-05-23T05:59:00.217Z,1015.31
2023-05-23T05:59:32.714Z,1015.31
2023-05-23T06:00:02.720Z,1015.51
2023-05-23T06:00:33.373Z,1015.31
2023-05-23T06:01:04.242Z,1015.31
2023-05-23T06:01:35.728Z,1015.71
2023-05-23T06:02:06.531Z,1015.71
2023-05-23T06:02:37.368Z,1015.51
2023-05-23T06:03:08.524Z,1015.51
2023-05-23T06:03:39.505Z,1015.71
2023-05-23T06:04:10.684Z,1015.71
2023-05-23T06:04:41.515Z,1015.51
2023-05-23T06:05:12.591Z,1015.51
2023-05-23T06:05:43.312Z,1015.41
2023-05-23T06:06:14.128Z,1015.41
2023-05-23T06:06:45.796Z,1015.71
2023-05-23T06:07:16.329Z,1015.71
2023-05-23T06:07:47.295Z,1015.61
2023-05-23T06:08:18.316Z,1015.61
2023-05-23T06:08:49.306Z,1015.41
2023-05-23T06:09:20.374Z,1015.41
2023-05-23T06:09:51.668Z,1015.61
2023-05-23T06:10:22.991Z,1015.61
2023-05-23T06:10:53.485Z,1015.61
2023-05-23T06:11:24.443Z,1015.61
2023-05-23T06:11:55.804Z,1015.81
2023-05-23T06:12:26.581Z,1015.81
2023-05-23T06:12:57.602Z,1015.51
2023-05-23T06:13:28.353Z,1015.51
2023-05-23T06:13:59.260Z,1015.51
2023-05-23T06:14:30.536Z,1015.51
2023-05-23T06:15:01.691Z,1015.71
2023-05-23T06:15:32.425Z,1015.61